Hall Park, Oklahoma
Current Conditions -  °F | °C
As of 9:15 AM on Monday 24 Nov 2014 (Local Time) from KOUN Reporting Station
Clear Clear  
Wind Chill: 37°   Ceiling: Unl
Heat Index: 43°   Visibility: 10mi
Dew Point: 30°   Wind: 10mph
Humidity: 61%   Direction: 270°W
Pressure: 30"   Gusts: NA
Location:  35.2211°N, 97.4448°W
Report Text: KOUN 241515Z AUTO 27009KT 10SM CLR 06/M01 A3000 RMK AO2
Loading
Personal Weather Stations






























Interactive Weather Map New forecast layout! Learn more

10-Day Weather Forecast

Advertisements
Track Severe Weather on mobile